M I D A S
Marine Information and Data Acquisition System
Tripno 861 of the Zeeleeuw from 2005-03-11 07:52:16 to 2005-03-11 13:55:14
Back to CruiseResearch ActivitiesStationsMapUnderway DataData graphs

EquipmentUnitsComment
TimeDGPSUTC
LatitudeDGPSDM.mWGS84
LongitudeDGPSDM.mWGS84
HeadingGyrodeg 
SOGDGPSknotsSpeed over ground
COGDGPSdegCourse over ground
DepthEcho soundermeters200 kHz
Missing or incorrect values are displayed as -999
Navigation data collected by the RV Zeeleeuw from 2005-03-11 07:53:12 to 2005-03-11 14:07:33
Time Latitude Longitude Heading SOG COG Depth
2005-03-11 07:54:16 51°13.564 2°56.159 132.5 3.6 131 7.3
2005-03-11 07:55:16 51°13.528 2°56.193 176.6 0.6 167 8.4
2005-03-11 07:56:16 51°13.534 2°56.192 203.6 1.3 202 5.3
2005-03-11 07:57:17 51°13.54 2°56.197 225.8 1.7 224 -999
2005-03-11 07:58:17 51°13.541 2°56.206 252.5 0.3 43 -999
2005-03-11 07:59:16 51°13.559 2°56.135 309.3 4.3 305 8.2
2005-03-11 08:00:16 51°13.615 2°56.006 307.7 6.4 304 5.7
2005-03-11 08:01:16 51°13.678 2°55.858 305.4 6.9 302 7.4
2005-03-11 08:02:16 51°13.75 2°55.709 317.2 7.2 314 8.1
2005-03-11 08:03:17 51°13.853 2°55.612 338.9 7.2 335 -999
2005-03-11 08:04:16 51°13.965 2°55.534 339.6 7.4 336 8
2005-03-11 08:05:16 51°14.079 2°55.451 339.6 7.9 335 8
2005-03-11 08:06:16 51°14.209 2°55.339 329.9 9.6 327 -999
2005-03-11 08:07:16 51°14.327 2°55.147 313.7 10.3 309 8.5
2005-03-11 08:08:16 51°14.408 2°54.895 290.9 11.3 284 8.6
2005-03-11 08:09:16 51°14.421 2°54.566 272.9 13.3 266 8.5
2005-03-11 08:10:16 51°14.363 2°54.217 251.5 13.8 247 8
2005-03-11 08:11:16 51°14.267 2°53.882 246.2 14.1 240 7.7
2005-03-11 08:12:16 51°14.138 2°53.571 243.8 14.2 239 7.8
2005-03-11 08:13:16 51°14.007 2°53.255 241.6 14.3 237 8
2005-03-11 08:14:16 51°13.877 2°52.93 240.8 14.6 236 8.3
2005-03-11 08:15:16 51°13.748 2°52.604 242.4 14.6 238 8.4
2005-03-11 08:16:16 51°13.62 2°52.271 242.7 14.8 238 8.7
2005-03-11 08:17:16 51°13.488 2°51.939 243.1 14.8 237 8.7
2005-03-11 08:18:16 51°13.359 2°51.606 243.1 14.7 238 8.7
2005-03-11 08:19:16 51°13.228 2°51.274 243.3 14.8 238 8.8
2005-03-11 08:20:16 51°13.097 2°50.941 243.1 14.8 238 8.9
2005-03-11 08:21:16 51°12.971 2°50.601 245 15 240 8.9
2005-03-11 08:22:16 51°12.843 2°50.262 243.7 14.9 239 9
2005-03-11 08:23:16 51°12.717 2°49.92 243.9 15 239 9
2005-03-11 08:24:16 51°12.591 2°49.578 244.7 14.9 241 9.1
2005-03-11 08:25:16 51°12.465 2°49.236 244.2 15 239 9
2005-03-11 08:26:16 51°12.34 2°48.894 244.3 15 240 9.1
2005-03-11 08:27:16 51°12.215 2°48.554 244.4 14.9 240 9.1
2005-03-11 08:28:16 51°12.09 2°48.207 244.4 15 239 9
2005-03-11 08:29:17 51°11.964 2°47.861 244.4 14.9 240 9
2005-03-11 08:30:16 51°11.842 2°47.521 244.5 14.9 240 8.7
2005-03-11 08:31:16 51°11.719 2°47.181 244.8 14.7 241 8.4
2005-03-11 08:32:16 51°11.601 2°46.842 244.8 14.6 242 8.1
2005-03-11 08:33:16 51°11.51 2°46.484 254.8 14.6 249 8.3
2005-03-11 08:34:16 51°11.416 2°46.122 254 14.8 249 8.6
2005-03-11 08:35:16 51°11.321 2°45.761 252.2 14.9 247 8.7
2005-03-11 08:36:16 51°11.225 2°45.396 251.8 14.8 247 8.7
2005-03-11 08:37:17 51°11.13 2°45.03 252.4 14.9 248 8.6
2005-03-11 08:38:16 51°11.039 2°44.669 253.9 15 249 8.7
2005-03-11 08:39:17 51°10.955 2°44.289 255.4 15 250 8.8
2005-03-11 08:40:17 51°10.871 2°43.913 255.2 14.9 250 8.7
2005-03-11 08:41:16 51°10.789 2°43.55 254.7 14.8 250 8.8
2005-03-11 08:42:16 51°10.707 2°43.181 255.8 14.7 251 8.9
2005-03-11 08:43:16 51°10.626 2°42.817 255 14.8 251 8.8
2005-03-11 08:44:17 51°10.544 2°42.441 255.6 14.8 251 8.9
2005-03-11 08:45:16 51°10.464 2°42.076 254.7 14.7 251 9
2005-03-11 08:46:16 51°10.386 2°41.706 255.5 14.8 252 9.2
2005-03-11 08:47:17 51°10.305 2°41.333 254.4 14.7 251 9.3
2005-03-11 08:48:16 51°10.229 2°40.965 255.1 14.7 252 9.5
2005-03-11 08:49:16 51°10.152 2°40.6 254.4 14.6 251 9.7
2005-03-11 08:50:16 51°10.074 2°40.231 254.9 14.6 252 9.9
2005-03-11 08:51:17 51°9.995 2°39.862 254.6 14.5 252 9.9
2005-03-11 08:52:16 51°9.921 2°39.499 255.4 14.6 252 10.1
2005-03-11 08:53:16 51°9.846 2°39.135 255.3 14.6 251 10.4
2005-03-11 08:54:16 51°9.772 2°38.766 255.3 14.6 252 10.6
2005-03-11 08:55:16 51°9.697 2°38.395 255.1 14.5 252 11.1
2005-03-11 08:56:16 51°9.618 2°38.03 253.4 14.6 250 11.5
2005-03-11 08:57:16 51°9.529 2°37.673 251.4 14.6 249 11.8
2005-03-11 08:58:16 51°9.455 2°37.299 256.8 14.6 254 12.7
2005-03-11 08:59:16 51°9.385 2°36.927 256.2 14.6 253 13.9
2005-03-11 09:00:17 51°9.322 2°36.615 252.8 9.5 250 14.8
2005-03-11 09:01:16 51°9.267 2°36.486 223.9 4.3 223 14.7
2005-03-11 09:02:16 51°9.228 2°36.45 194 2.3 205 14.4
2005-03-11 09:03:16 51°9.199 2°36.43 193.2 1.7 208 14
2005-03-11 09:04:16 51°9.177 2°36.415 190.6 1.1 209 13.9
2005-03-11 09:05:16 51°9.162 2°36.403 187.9 0.9 207 13.5
2005-03-11 09:06:16 51°9.15 2°36.394 173.7 0.7 198 13.3
2005-03-11 09:07:16 51°9.136 2°36.388 163.8 1 185 13.1
2005-03-11 09:08:16 51°9.116 2°36.384 157.5 1.3 185 12.9
2005-03-11 09:09:16 51°9.093 2°36.383 154.3 1.4 178 12.4
2005-03-11 09:10:16 51°9.069 2°36.383 154.3 1.4 184 11.9
2005-03-11 09:11:16 51°9.042 2°36.385 149.3 1.9 166 11.3
2005-03-11 09:12:16 51°9.022 2°36.44 80.5 2.7 79 10.6
2005-03-11 09:13:16 51°9.066 2°36.463 1.8 3.5 346 11.3
2005-03-11 09:14:16 51°9.133 2°36.406 344 5.1 328 12.9
2005-03-11 09:15:16 51°9.209 2°36.325 338.9 5.5 326 14.9
2005-03-11 09:16:16 51°9.274 2°36.245 335.4 4.3 318 15.2
2005-03-11 09:17:16 51°9.302 2°36.196 336.6 2 308 15.2
2005-03-11 09:18:16 51°9.314 2°36.158 330.5 1.4 290 15.4
2005-03-11 09:19:16 51°9.318 2°36.132 332.3 0.9 277 15.6
2005-03-11 09:20:16 51°9.318 2°36.114 337.6 0.6 265 15.7
2005-03-11 09:21:16 51°9.315 2°36.102 349.2 0.5 237 16.1
2005-03-11 09:22:16 51°9.309 2°36.093 356.3 0.5 230 15.5
2005-03-11 09:23:16 51°9.303 2°36.084 358.8 0.5 215 15.8
2005-03-11 09:24:16 51°9.296 2°36.076 358.5 0.5 202 15.7
2005-03-11 09:25:16 51°9.288 2°36.068 358.1 0.5 211 15.4
2005-03-11 09:26:16 51°9.281 2°36.059 358.5 0.6 224 15.8
2005-03-11 09:27:16 51°9.275 2°36.049 356.8 0.6 228 15.4
2005-03-11 09:28:16 51°9.268 2°36.039 357.4 0.6 226 15.6
2005-03-11 09:29:16 51°9.261 2°36.028 358 0.6 218 15.5
2005-03-11 09:30:16 51°9.253 2°36.018 357.7 0.6 221 15.5
2005-03-11 09:31:16 51°9.246 2°36.008 357.5 0.5 229 15.4
2005-03-11 09:32:16 51°9.24 2°35.997 357.2 0.5 262 15.5
2005-03-11 09:33:17 51°9.253 2°35.983 10.7 1.4 339 15.7
2005-03-11 09:34:16 51°9.278 2°35.986 30.4 1.6 12 16.2
2005-03-11 09:35:16 51°9.298 2°36.003 38.2 1.3 29 16
2005-03-11 09:36:16 51°9.315 2°36.02 44.4 1.2 36 16
2005-03-11 09:37:17 51°9.328 2°36.044 60.3 1.2 64 16
2005-03-11 09:38:16 51°9.329 2°36.079 88.1 1.5 105 16
2005-03-11 09:39:16 51°9.311 2°36.111 128.4 1.7 150 15.9
2005-03-11 09:40:17 51°9.279 2°36.12 163.1 2.2 179 15.5
2005-03-11 09:41:17 51°9.241 2°36.109 189 2.5 196 15.4
2005-03-11 09:42:16 51°9.209 2°36.088 199.5 1.8 205 15.6
2005-03-11 09:43:16 51°9.184 2°36.071 202.2 1.5 206 15.7
2005-03-11 09:44:17 51°9.162 2°36.056 202.2 1.3 205 15.6
2005-03-11 09:45:16 51°9.143 2°36.046 194.6 1.1 191 15.5
2005-03-11 09:46:16 51°9.126 2°36.038 187.2 1.1 191 15.3
2005-03-11 09:47:16 51°9.105 2°36.03 189.2 1.1 190 15.3
2005-03-11 09:48:16 51°9.087 2°36.022 184.3 1.4 190 15
2005-03-11 09:49:16 51°9.047 2°35.997 213.1 3.4 211 14.6
2005-03-11 09:50:16 51°9.012 2°35.916 265.5 3.8 256 14.6
2005-03-11 09:51:16 51°9.037 2°35.841 347.9 3.1 331 15.4
2005-03-11 09:52:16 51°9.073 2°35.828 4.6 1.6 341 15.8
2005-03-11 09:53:17 51°9.09 2°35.807 350.1 1.1 310 16.1
2005-03-11 09:54:16 51°9.099 2°35.789 345.2 0.8 306 15.7
2005-03-11 09:55:16 51°9.108 2°35.774 351.2 1 320 16.2
2005-03-11 09:56:16 51°9.13 2°35.759 7.6 1.7 347 15.8
2005-03-11 09:57:17 51°9.16 2°35.772 41.5 2.1 38 15.9
2005-03-11 09:58:17 51°9.175 2°35.814 68.9 1.8 71 16.2
2005-03-11 09:59:16 51°9.184 2°35.863 73.2 2 84 16
2005-03-11 10:00:16 51°9.181 2°35.917 93.6 2.1 102 16.1
2005-03-11 10:01:16 51°9.168 2°35.97 105.3 2.2 113 16.1
2005-03-11 10:02:16 51°9.146 2°36.019 120.3 2.2 134 16
2005-03-11 10:03:16 51°9.12 2°36.051 134.7 1.9 150 15.6
2005-03-11 10:04:17 51°9.09 2°36.072 147.5 2.5 155 15.1
2005-03-11 10:05:16 51°9.071 2°36.141 75.2 3.1 77 14.4
2005-03-11 10:06:16 51°9.124 2°36.165 6 4.1 356 14.9
2005-03-11 10:07:16 51°9.192 2°36.161 1.5 3.3 352 16
2005-03-11 10:08:16 51°9.227 2°36.147 353.5 1.6 343 16.3
2005-03-11 10:09:16 51°9.245 2°36.134 348.4 0.9 336 16.1
2005-03-11 10:10:16 51°9.253 2°36.126 346.9 0.5 321 16.2
2005-03-11 10:11:16 51°9.256 2°36.122 346.8 0.2 327 16.2
2005-03-11 10:12:16 51°9.257 2°36.123 346.5 0.1 137 16.3
2005-03-11 10:13:17 51°9.255 2°36.127 350.1 0.2 150 16.3
2005-03-11 10:14:16 51°9.251 2°36.133 353.7 0.4 126 16.2
2005-03-11 10:15:16 51°9.246 2°36.14 357.4 0.4 139 16.3
2005-03-11 10:16:16 51°9.24 2°36.147 0.9 0.4 124 16
2005-03-11 10:17:16 51°9.234 2°36.155 2.5 0.5 146 16.5
2005-03-11 10:18:16 51°9.227 2°36.163 4 0.6 141 16.2
2005-03-11 10:19:17 51°9.239 2°36.177 22.3 1.7 17 16.4
2005-03-11 10:20:16 51°9.253 2°36.272 109.6 4.8 110 16.5
2005-03-11 10:21:17 51°9.194 2°36.404 127.1 6.8 127 15.5
2005-03-11 10:22:16 51°9.12 2°36.552 121.9 7.3 127 13.1
2005-03-11 10:23:16 51°9.12 2°36.702 56.7 4.5 52 12.2
2005-03-11 10:24:17 51°9.139 2°36.734 12.5 0.4 38 12.5
2005-03-11 10:25:16 51°9.141 2°36.743 350.7 0.3 68 12.5
2005-03-11 10:26:16 51°9.142 2°36.753 347.6 0.5 90 12.7
2005-03-11 10:27:16 51°9.14 2°36.768 352 0.7 106 12.4
2005-03-11 10:28:16 51°9.137 2°36.786 356 0.7 113 12.4
2005-03-11 10:29:17 51°9.132 2°36.807 2.1 0.9 106 12.1
2005-03-11 10:30:16 51°9.127 2°36.825 3.5 0.7 112 12.2
2005-03-11 10:31:16 51°9.125 2°36.848 358.8 0.8 99 12.1
2005-03-11 10:32:17 51°9.122 2°36.87 356.9 0.9 101 11.8
2005-03-11 10:33:16 51°9.12 2°36.892 358.3 0.9 103 12
2005-03-11 10:34:16 51°9.118 2°36.915 356.4 0.8 100 11.6
2005-03-11 10:35:16 51°9.115 2°36.938 354 0.8 101 11.7
2005-03-11 10:36:16 51°9.112 2°36.963 353.1 1.1 97 11.6
2005-03-11 10:37:16 51°9.107 2°36.99 359.2 1.2 106 11.5
2005-03-11 10:38:16 51°9.102 2°37.02 5.1 1 109 11.4
2005-03-11 10:39:16 51°9.097 2°37.049 6.5 1.1 105 11.4
2005-03-11 10:40:16 51°9.094 2°37.077 2.7 1.1 98 11.4
2005-03-11 10:41:17 51°9.093 2°37.107 -999 1.2 91 11.3
2005-03-11 10:42:17 51°9.093 2°37.139 356.2 1.1 91 11.2
2005-03-11 10:43:16 51°9.096 2°37.169 355.6 1.3 76 11
2005-03-11 10:44:16 51°9.104 2°37.198 351.1 1.2 64 11.7
2005-03-11 10:45:17 51°9.115 2°37.224 340.7 1.2 51 11.5
2005-03-11 10:46:17 51°9.122 2°37.253 344 1.2 73 11.9
2005-03-11 10:47:16 51°9.128 2°37.285 345.8 1.3 72 11.5
2005-03-11 10:48:16 51°9.134 2°37.318 347.8 1.5 77 11.7
2005-03-11 10:49:16 51°9.137 2°37.354 352.3 1.3 83 11.9
2005-03-11 10:50:16 51°9.139 2°37.39 353 1.6 81 11.8
2005-03-11 10:51:16 51°9.143 2°37.427 353.4 1.4 82 11.8
2005-03-11 10:52:16 51°9.147 2°37.464 351.6 1.5 78 11.7
2005-03-11 10:53:16 51°9.152 2°37.503 351.4 1.5 79 11.7
2005-03-11 10:54:16 51°9.157 2°37.543 355.2 1.4 78 11.7
2005-03-11 10:55:16 51°9.161 2°37.584 357 1.6 81 11.9
2005-03-11 10:56:17 51°9.165 2°37.628 358.3 1.7 79 12
2005-03-11 10:57:16 51°9.169 2°37.669 354.2 1.5 82 11.8
2005-03-11 10:58:17 51°9.174 2°37.712 352.3 1.7 78 11.9
2005-03-11 10:59:16 51°9.181 2°37.757 356.3 1.8 80 12.2
2005-03-11 11:00:16 51°9.186 2°37.802 355.1 1.8 77 11.9
2005-03-11 11:01:17 51°9.192 2°37.851 356.1 1.9 83 12.3
2005-03-11 11:02:16 51°9.199 2°37.899 355.2 2 76 11.9
2005-03-11 11:03:16 51°9.206 2°37.948 353.6 1.9 79 12
2005-03-11 11:04:16 51°9.212 2°38 355.9 2 78 11.9
2005-03-11 11:05:17 51°9.218 2°38.052 355 2 80 11.9
2005-03-11 11:06:17 51°9.225 2°38.105 349.7 2.1 79 11.9
2005-03-11 11:07:17 51°9.232 2°38.16 351 2.2 77 12.2
2005-03-11 11:08:16 51°9.238 2°38.216 352.5 2.2 78 11.9
2005-03-11 11:09:16 51°9.246 2°38.271 355.6 2.2 79 12.4
2005-03-11 11:10:16 51°9.253 2°38.328 354.2 2.2 79 12
2005-03-11 11:11:16 51°9.262 2°38.386 353.7 2.2 80 11.8
2005-03-11 11:12:16 51°9.278 2°38.443 350.4 2.6 50 12.3
2005-03-11 11:13:17 51°9.312 2°38.479 329.2 2.5 32 12
2005-03-11 11:14:16 51°9.343 2°38.502 310.2 1.9 31 12.5
2005-03-11 11:15:16 51°9.363 2°38.495 266.9 0.6 324 12.7
2005-03-11 11:16:16 51°9.35 2°38.478 240.2 1.4 210 12.6
2005-03-11 11:17:16 51°9.327 2°38.402 260.6 3.8 258 12.6
2005-03-11 11:18:17 51°9.312 2°38.296 258.4 4.2 257 12.7
2005-03-11 11:19:16 51°9.293 2°38.191 257.4 4.3 255 12.8
2005-03-11 11:20:16 51°9.272 2°38.079 255.7 4.5 252 12.9
2005-03-11 11:21:16 51°9.251 2°37.97 256.5 4.3 254 12.9
2005-03-11 11:22:16 51°9.231 2°37.866 257.3 4.1 255 13
2005-03-11 11:23:16 51°9.212 2°37.756 256.2 4.3 253 13
2005-03-11 11:24:16 51°9.19 2°37.647 255.6 4.4 253 13.1
2005-03-11 11:25:16 51°9.166 2°37.539 255.3 4.3 251 13.1
2005-03-11 11:26:16 51°9.14 2°37.429 254.4 4.5 249 13
2005-03-11 11:27:17 51°9.123 2°37.35 256.9 1.9 255 13.1
2005-03-11 11:28:17 51°9.134 2°37.34 289.8 0.8 349 13.2
2005-03-11 11:29:17 51°9.164 2°37.372 328.2 2.5 42 13.2
2005-03-11 11:30:17 51°9.198 2°37.418 336.4 2.8 40 13.7
2005-03-11 11:31:16 51°9.239 2°37.462 351.4 3.4 32 14
2005-03-11 11:32:16 51°9.307 2°37.533 16.9 5.4 35 14.3
2005-03-11 11:33:17 51°9.364 2°37.661 67 6 67 14.5
2005-03-11 11:34:16 51°9.379 2°37.815 99.1 5.9 86 14.3
2005-03-11 11:35:16 51°9.382 2°37.975 101 5.9 89 14.1
2005-03-11 11:36:17 51°9.389 2°38.124 95.2 5.2 82 14.1
2005-03-11 11:37:16 51°9.407 2°38.249 86.5 4.8 76 14
2005-03-11 11:38:17 51°9.426 2°38.366 84.9 4.4 75 14
2005-03-11 11:39:16 51°9.446 2°38.474 75.8 4.3 71 13.9
2005-03-11 11:40:16 51°9.47 2°38.578 66.2 4.2 69 13.9
2005-03-11 11:41:16 51°9.497 2°38.682 58.3 4.1 67 13.9
2005-03-11 11:42:16 51°9.527 2°38.783 46.4 4.1 61 13.9
2005-03-11 11:43:16 51°9.559 2°38.873 34.6 3.9 60 13.9
2005-03-11 11:44:16 51°9.591 2°38.962 36.8 3.9 63 14
2005-03-11 11:45:16 51°9.619 2°39.05 37.1 3.7 63 14.1
2005-03-11 11:46:17 51°9.647 2°39.138 39.3 3.8 64 14
2005-03-11 11:47:16 51°9.675 2°39.225 39.9 3.8 64 14
2005-03-11 11:48:16 51°9.704 2°39.314 39.3 3.8 61 13.8
2005-03-11 11:49:17 51°9.734 2°39.404 37 3.8 65 14
2005-03-11 11:50:16 51°9.764 2°39.491 35.5 3.8 62 13.9
2005-03-11 11:51:16 51°9.793 2°39.58 34.9 3.7 62 14.1
2005-03-11 11:52:16 51°9.822 2°39.667 35.5 3.6 61 14.1
2005-03-11 11:53:16 51°9.852 2°39.754 33 3.7 61 14.3
2005-03-11 11:54:16 51°9.882 2°39.842 36.5 3.7 63 13.8
2005-03-11 11:55:16 51°9.913 2°39.934 41.6 3.9 60 14.3
2005-03-11 11:56:16 51°9.944 2°40.03 46.2 4 61 14.3
2005-03-11 11:57:16 51°9.978 2°40.126 42.5 4.2 61 14.2
2005-03-11 11:58:16 51°10.01 2°40.224 49.6 4.1 66 14.2
2005-03-11 11:59:17 51°10.041 2°40.326 51.7 4.2 65 14.4
2005-03-11 12:00:16 51°10.073 2°40.426 52.1 4.3 64 14.5
2005-03-11 12:01:16 51°10.103 2°40.528 52.3 4.2 65 14.4
2005-03-11 12:02:17 51°10.133 2°40.629 50.8 4.2 65 14.4
2005-03-11 12:03:17 51°10.165 2°40.728 46.1 4.2 61 14.6
2005-03-11 12:04:17 51°10.197 2°40.825 45.8 4.2 63 14.4
2005-03-11 12:05:17 51°10.226 2°40.921 49.3 4 65 14.6
2005-03-11 12:06:16 51°10.256 2°41.019 50.8 4.2 64 14.7
2005-03-11 12:07:17 51°10.289 2°41.118 48.4 4.3 62 14.5
2005-03-11 12:08:16 51°10.321 2°41.215 48 4.2 63 14.7
2005-03-11 12:09:17 51°10.354 2°41.314 46.2 4.1 64 14.8
2005-03-11 12:10:16 51°10.389 2°41.412 49 4.7 61 14.8
2005-03-11 12:11:17 51°10.423 2°41.536 81.1 5.2 73 15
2005-03-11 12:12:16 51°10.44 2°41.677 91 5.6 80 14.8
2005-03-11 12:13:16 51°10.458 2°41.828 91.2 5.9 81 14.7
2005-03-11 12:14:16 51°10.472 2°41.98 96.3 5.6 83 14.4
2005-03-11 12:15:16 51°10.479 2°42.117 111.6 4.8 88 14.2
2005-03-11 12:16:16 51°10.478 2°42.233 131 4.1 90 13.8
2005-03-11 12:17:16 51°10.476 2°42.327 148.7 3.3 90 13.5
2005-03-11 12:18:16 51°10.48 2°42.408 155.2 3.1 85 13.5
2005-03-11 12:19:17 51°10.488 2°42.492 152.4 3.1 81 13.9
2005-03-11 12:20:16 51°10.496 2°42.573 156.5 3.2 80 13.4
2005-03-11 12:21:17 51°10.501 2°42.659 156.1 3.4 85 13.4
2005-03-11 12:22:16 51°10.494 2°42.772 129.7 4.5 92 13.1
2005-03-11 12:23:17 51°10.49 2°42.895 126.3 4.7 96 12.9
2005-03-11 12:24:16 51°10.524 2°43.059 48.5 7.2 53 12.8
2005-03-11 12:25:17 51°10.619 2°43.113 330.2 5 356 13.1
2005-03-11 12:26:16 51°10.654 2°43.067 265.6 2.3 284 14
2005-03-11 12:27:17 51°10.653 2°43.058 246.2 0.4 98 13.8
2005-03-11 12:28:17 51°10.654 2°43.095 231 1.9 85 13.8
2005-03-11 12:29:16 51°10.658 2°43.159 207 2.7 81 13.6
2005-03-11 12:30:16 51°10.664 2°43.235 179.2 3 85 13.4
2005-03-11 12:31:17 51°10.665 2°43.316 170 3.1 92 13.5
2005-03-11 12:32:16 51°10.656 2°43.399 179.3 3.1 104 13.3
2005-03-11 12:33:17 51°10.644 2°43.464 205.2 2.3 104 13.2
2005-03-11 12:34:16 51°10.641 2°43.519 212.2 2.1 86 13
2005-03-11 12:35:16 51°10.652 2°43.586 202.8 2.7 71 13
2005-03-11 12:36:16 51°10.669 2°43.652 185.8 2.8 65 12.8
2005-03-11 12:37:17 51°10.689 2°43.72 169.8 2.7 65 13.2
2005-03-11 12:38:16 51°10.709 2°43.785 163.9 2.8 64 13.1
2005-03-11 12:39:16 51°10.728 2°43.848 163.1 2.7 64 13
2005-03-11 12:40:17 51°10.748 2°43.914 164.7 2.7 65 13.1
2005-03-11 12:41:16 51°10.767 2°43.979 165.2 2.7 68 13.2
2005-03-11 12:42:16 51°10.784 2°44.045 167.2 2.7 65 13.2
2005-03-11 12:43:16 51°10.802 2°44.111 167.1 2.7 66 13.2
2005-03-11 12:44:16 51°10.82 2°44.177 166 2.7 68 13.2
2005-03-11 12:45:16 51°10.837 2°44.244 166.2 2.7 69 13.3
2005-03-11 12:46:17 51°10.855 2°44.31 167.4 2.6 67 13.3
2005-03-11 12:47:16 51°10.865 2°44.376 175.7 2.5 103 13.1
2005-03-11 12:48:16 51°10.837 2°44.407 219.5 2.2 194 13.1
2005-03-11 12:49:17 51°10.826 2°44.342 282.7 3.3 303 13
2005-03-11 12:50:16 51°10.899 2°44.324 346.1 5.2 8 13.4
2005-03-11 12:51:16 51°10.979 2°44.371 358.1 5 23 14.2
2005-03-11 12:52:16 51°11.049 2°44.442 24.3 5.1 39 14.6
2005-03-11 12:53:17 51°11.111 2°44.542 35 5.3 47 15
2005-03-11 12:54:16 51°11.161 2°44.647 42 4.8 55 15.2
2005-03-11 12:55:16 51°11.205 2°44.742 34.9 4.2 53 15.3
2005-03-11 12:56:17 51°11.245 2°44.825 34.2 3.8 52 15.5
2005-03-11 12:57:17 51°11.279 2°44.904 40.6 3.5 57 15.7
2005-03-11 12:58:17 51°11.31 2°44.988 45.5 3.6 62 15.7
2005-03-11 12:59:17 51°11.342 2°45.067 41 3.5 56 15.8
2005-03-11 13:00:17 51°11.374 2°45.144 35.2 3.5 58 16
2005-03-11 13:01:17 51°11.406 2°45.222 39.1 3.5 58 16.1
2005-03-11 13:02:17 51°11.438 2°45.302 41.4 3.5 59 15.9
2005-03-11 13:03:17 51°11.47 2°45.385 42.7 3.7 60 16.2
2005-03-11 13:04:17 51°11.501 2°45.468 38.8 3.6 58 16.2
2005-03-11 13:05:17 51°11.532 2°45.547 32.9 3.6 57 16.1
2005-03-11 13:06:16 51°11.565 2°45.622 27.9 3.5 52 16.3
2005-03-11 13:07:16 51°11.599 2°45.695 21.4 3.5 55 16.4
2005-03-11 13:08:17 51°11.633 2°45.763 18.6 3.4 49 16.5
2005-03-11 13:09:16 51°11.667 2°45.828 17 3.2 49 16.5
2005-03-11 13:10:16 51°11.702 2°45.899 24.3 3.3 54 16.6
2005-03-11 13:11:16 51°11.732 2°45.971 30.9 3.1 58 16.6
2005-03-11 13:12:16 51°11.759 2°46.041 36.4 3 58 16.6
2005-03-11 13:13:16 51°11.782 2°46.113 43.4 3 63 16.6
2005-03-11 13:14:16 51°11.805 2°46.185 47.3 3.1 64 16.6
2005-03-11 13:15:17 51°11.827 2°46.26 51.9 3.2 64 16.6
2005-03-11 13:16:16 51°11.849 2°46.336 54.4 3.2 66 16.6
2005-03-11 13:17:16 51°11.87 2°46.411 57.2 3 67 16.6
2005-03-11 13:18:16 51°11.89 2°46.484 57.9 3 64 16.5
2005-03-11 13:19:17 51°11.91 2°46.563 75.5 3.2 70 16.5
2005-03-11 13:20:17 51°11.924 2°46.657 97.6 3.8 79 16.5
2005-03-11 13:21:18 51°11.938 2°46.767 93.6 4.4 78 16.5
2005-03-11 13:22:17 51°11.95 2°46.884 102.4 4.7 83 16.4
2005-03-11 13:23:16 51°11.951 2°47.01 119.2 4.9 93 16.3
2005-03-11 13:24:16 51°11.944 2°47.126 135.4 4 95 15.9
2005-03-11 13:25:16 51°11.94 2°47.214 155 3 95 15.7
2005-03-11 13:26:16 51°11.939 2°47.288 162.1 2.7 88 15.7
2005-03-11 13:27:16 51°11.909 2°47.356 187.2 3.6 150 15.2
2005-03-11 13:28:17 51°11.864 2°47.348 232.6 2.6 200 14.8
2005-03-11 13:29:16 51°11.877 2°47.286 300.1 4.1 327 15.2
2005-03-11 13:30:16 51°11.981 2°47.322 23.9 8 32 15.9
2005-03-11 13:31:17 51°12.074 2°47.508 59.9 9.3 58 16.1
2005-03-11 13:32:17 51°12.159 2°47.724 61.3 9.9 59 16.1
2005-03-11 13:33:17 51°12.232 2°47.919 55.9 7.2 55 16
2005-03-11 13:34:17 51°12.296 2°48.037 36.4 5.3 47 16.1
2005-03-11 13:35:17 51°12.348 2°48.122 23.9 4.1 45 16
2005-03-11 13:36:16 51°12.417 2°48.222 43.4 8.4 46 16.1
2005-03-11 13:37:17 51°12.537 2°48.538 64.6 15.2 60 15.8
2005-03-11 13:38:17 51°12.675 2°48.879 55.6 15.6 50 15.5
2005-03-11 13:39:16 51°12.807 2°49.23 72.2 15.3 66 15.4
2005-03-11 13:40:17 51°12.923 2°49.601 66.7 15.7 60 15.3
2005-03-11 13:41:17 51°13.037 2°49.975 68.7 15.8 63 15
2005-03-11 13:42:17 51°13.152 2°50.346 67.8 15.6 64 14.9
2005-03-11 13:43:16 51°13.268 2°50.704 68.3 15.3 63 14.8
2005-03-11 13:44:17 51°13.389 2°51.072 69.5 15.5 64 14.6
2005-03-11 13:45:16 51°13.51 2°51.429 66.5 15.4 59 14.5
2005-03-11 13:46:16 51°13.634 2°51.787 68.3 15.7 58 14.4
2005-03-11 13:47:18 51°13.761 2°52.159 65.6 15.7 59 14.3
2005-03-11 13:48:16 51°13.884 2°52.507 65.5 15.5 58 14.2
2005-03-11 13:49:17 51°14.009 2°52.867 68.1 15.2 62 14.1
2005-03-11 13:50:17 51°14.128 2°53.222 67.4 15.3 60 13.5
2005-03-11 13:51:17 51°14.25 2°53.579 64.7 15.1 57 13.3
2005-03-11 13:52:16 51°14.364 2°53.921 68.5 14.8 64 13.2
2005-03-11 13:53:17 51°14.423 2°54.279 92.9 14.2 85 13.3
2005-03-11 13:54:17 51°14.428 2°54.647 98.4 13.5 96 14.1
2005-03-11 13:55:17 51°14.388 2°54.993 118.9 12.8 112 13.8
2005-03-11 13:56:17 51°14.285 2°55.233 134.9 9.8 130 13.6
2005-03-11 13:57:17 51°14.178 2°55.365 153.4 7.7 152 14
2005-03-11 13:58:17 51°14.064 2°55.454 158.2 7.6 154 12.8
2005-03-11 13:59:16 51°13.951 2°55.54 158.3 7.6 155 13.5
2005-03-11 14:00:17 51°13.835 2°55.628 156.9 7.6 154 13.3
2005-03-11 14:01:17 51°13.741 2°55.744 140.1 6.8 137 -999
2005-03-11 14:02:16 51°13.682 2°55.849 130.1 4.7 126 12.9
2005-03-11 14:03:16 51°13.643 2°55.941 128 4 123 12.9
2005-03-11 14:04:18 51°13.614 2°56.03 116.7 3.4 112 12.9
2005-03-11 14:05:16 51°13.599 2°56.09 123.3 1.6 117 10.9
2005-03-11 14:06:16 51°13.594 2°56.102 127.4 0.1 67 10.8
2005-03-11 14:07:18 51°13.595 2°56.102 128.7 0.2 249 -999